Time;durP1;ratioP1;P1;durP2;ratioP2;P2;SDS_P1;SDS_P2;PMS_P1;PMS_P2;Temp;Humidity;BMP_temperature;BMP_pressure;BME280_temperature;BME280_humidity;BME280_pressure;Samples;Min_cycle;Max_cycle;Signal;HPM_P1;HPM_P2
2023/05/07 00:01:31;;;;;;;16.13;7.43;;;;;;;11.84;100.00;99331.28;5058509;28;20132;-62
2023/05/07 00:03:58;;;;;;;12.50;7.10;;;;;;;11.84;100.00;99322.41;5056073;28;20037;-62
2023/05/07 00:06:26;;;;;;;11.32;6.25;;;;;;;11.83;100.00;99326.97;5067574;28;20119;-63
2023/05/07 00:08:53;;;;;;;11.07;6.50;;;;;;;11.89;100.00;99327.06;5060858;28;20140;-63
2023/05/07 00:11:20;;;;;;;9.32;6.35;;;;;;;11.87;100.00;99324.63;5060353;28;20044;-63
2023/05/07 00:13:49;;;;;;;11.15;6.72;;;;;;;11.92;100.00;99327.38;5055965;28;20047;-63
2023/05/07 00:16:16;;;;;;;11.13;7.45;;;;;;;11.97;100.00;99319.38;5061808;28;20040;-63
2023/05/07 00:18:43;;;;;;;9.55;6.30;;;;;;;11.93;100.00;99328.19;5057115;28;20067;-64
2023/05/07 00:21:10;;;;;;;9.05;5.90;;;;;;;11.90;100.00;99334.06;5062547;28;20510;-64
2023/05/07 00:23:37;;;;;;;8.50;4.88;;;;;;;11.82;100.00;99328.03;5058441;28;20043;-64
2023/05/07 00:26:04;;;;;;;9.23;5.78;;;;;;;11.88;100.00;99334.31;5054316;28;20051;-63
2023/05/07 00:28:31;;;;;;;13.50;6.72;;;;;;;11.99;100.00;99333.38;5070082;28;20044;-63
2023/05/07 00:30:59;;;;;;;9.60;6.25;;;;;;;11.95;100.00;99336.81;5058935;28;20070;-63
2023/05/07 00:33:26;;;;;;;8.30;5.40;;;;;;;11.98;100.00;99336.31;5059174;28;20048;-63
2023/05/07 00:35:54;;;;;;;8.25;5.07;;;;;;;11.99;100.00;99337.94;5059327;28;20148;-63
2023/05/07 00:38:21;;;;;;;9.75;5.05;;;;;;;11.98;100.00;99330.94;5062069;28;20128;-63
2023/05/07 00:40:48;;;;;;;9.23;5.63;;;;;;;11.87;100.00;99330.00;5059128;28;20041;-64
2023/05/07 00:43:15;;;;;;;9.13;5.78;;;;;;;11.69;100.00;99324.91;5059029;28;20049;-63
2023/05/07 00:45:42;;;;;;;9.45;6.28;;;;;;;11.82;100.00;99327.22;5063826;28;20441;-63
2023/05/07 00:48:10;;;;;;;11.25;6.40;;;;;;;11.83;100.00;99329.66;5059462;28;20063;-62
2023/05/07 00:50:37;;;;;;;10.57;6.57;;;;;;;11.80;100.00;99330.13;5059200;28;20041;-62
2023/05/07 00:53:04;;;;;;;12.43;6.90;;;;;;;11.90;100.00;99326.81;5057364;28;20041;-64
2023/05/07 00:55:31;;;;;;;8.63;5.95;;;;;;;11.93;100.00;99322.81;5071005;28;20047;-63
2023/05/07 00:57:58;;;;;;;8.88;5.93;;;;;;;11.96;100.00;99327.72;5057281;28;20048;-63
2023/05/07 01:00:25;;;;;;;11.50;6.30;;;;;;;11.98;100.00;99326.41;5058191;28;20090;-62
2023/05/07 01:02:52;;;;;;;9.25;5.90;;;;;;;12.03;100.00;99312.19;5064658;28;20052;-62
2023/05/07 01:05:21;;;;;;;8.20;6.20;;;;;;;12.00;100.00;99313.50;5070168;28;20047;-63
2023/05/07 01:07:48;;;;;;;12.02;6.25;;;;;;;11.95;100.00;99310.75;5053763;28;20048;-63
2023/05/07 01:10:15;;;;;;;9.65;5.95;;;;;;;11.99;100.00;99311.09;5064017;28;20139;-62
2023/05/07 01:12:42;;;;;;;10.30;5.95;;;;;;;12.04;100.00;99292.34;5064039;28;20516;-63
2023/05/07 01:15:11;;;;;;;9.23;6.00;;;;;;;12.06;100.00;99298.28;5059189;28;20112;-63
2023/05/07 01:17:39;;;;;;;11.25;5.65;;;;;;;12.05;100.00;99299.34;5056857;28;20131;-62
2023/05/07 01:20:11;;;;;;;9.57;5.22;;;;;;;11.99;100.00;99294.97;5070560;28;20036;-62
2023/05/07 01:22:39;;;;;;;9.25;5.90;;;;;;;11.91;100.00;99295.41;5060697;28;20045;-62
2023/05/07 01:25:08;;;;;;;9.18;5.82;;;;;;;11.89;100.00;99300.22;5073545;28;20095;-62
2023/05/07 01:27:37;;;;;;;11.50;5.35;;;;;;;11.90;100.00;99299.16;5081746;28;20375;-62
2023/05/07 01:30:05;;;;;;;9.65;5.53;;;;;;;11.95;100.00;99307.28;5061721;28;20494;-62
2023/05/07 01:32:33;;;;;;;7.38;4.75;;;;;;;11.95;100.00;99304.59;5075277;28;20037;-63
2023/05/07 01:35:01;;;;;;;8.35;5.47;;;;;;;11.85;100.00;99299.84;5053840;28;20073;-63
2023/05/07 01:37:28;;;;;;;11.35;5.78;;;;;;;11.71;100.00;99299.44;5064380;28;20036;-63
2023/05/07 01:39:56;;;;;;;10.25;5.82;;;;;;;11.62;100.00;99301.72;5060515;28;20049;-63
2023/05/07 01:42:23;;;;;;;8.57;5.65;;;;;;;11.69;100.00;99301.53;5060175;28;20044;-63
2023/05/07 01:44:50;;;;;;;10.13;5.47;;;;;;;11.59;100.00;99301.41;5062144;28;20045;-63
2023/05/07 01:47:17;;;;;;;12.75;6.13;;;;;;;11.60;100.00;99303.81;5055195;28;20049;-63
2023/05/07 01:49:44;;;;;;;9.82;5.90;;;;;;;11.61;100.00;99301.97;5057384;28;20524;-63
2023/05/07 01:52:12;;;;;;;11.27;6.30;;;;;;;11.56;100.00;99304.59;5058844;28;20098;-64
2023/05/07 01:54:39;;;;;;;8.40;5.97;;;;;;;11.61;100.00;99296.59;5060986;28;20138;-64
2023/05/07 01:57:07;;;;;;;8.63;5.78;;;;;;;11.70;100.00;99299.66;5057030;28;20395;-63
2023/05/07 01:59:37;;;;;;;10.20;6.05;;;;;;;11.75;100.00;99305.91;5053671;28;20400;-63
2023/05/07 02:02:04;;;;;;;14.07;7.25;;;;;;;11.74;100.00;99304.28;5059074;28;20036;-63
2023/05/07 02:04:32;;;;;;;12.38;6.68;;;;;;;11.81;100.00;99304.13;5053630;28;20045;-63
2023/05/07 02:06:59;;;;;;;11.45;6.95;;;;;;;11.85;100.00;99300.66;5060983;28;20045;-62
2023/05/07 02:09:27;;;;;;;10.70;6.80;;;;;;;11.83;100.00;99300.13;5055542;28;20064;-62
2023/05/07 02:11:54;;;;;;;9.68;6.22;;;;;;;11.80;100.00;99303.28;5067815;28;20568;-62
2023/05/07 02:14:23;;;;;;;10.73;7.00;;;;;;;11.74;100.00;99298.13;5056762;28;20045;-62
2023/05/07 02:16:50;;;;;;;11.82;6.63;;;;;;;11.83;100.00;99302.81;5053780;28;20053;-62
2023/05/07 02:19:18;;;;;;;10.05;6.50;;;;;;;11.81;100.00;99304.94;5078743;28;20098;-62
2023/05/07 02:21:45;;;;;;;9.70;6.70;;;;;;;11.82;100.00;99301.16;5062706;28;20422;-62
2023/05/07 02:24:12;;;;;;;11.93;7.07;;;;;;;11.77;100.00;99294.94;5056023;28;20113;-63
2023/05/07 02:26:38;;;;;;;9.43;6.63;;;;;;;11.89;100.00;99294.84;5065186;28;20052;-62
2023/05/07 02:29:05;;;;;;;10.48;5.97;;;;;;;11.92;100.00;99294.34;5078699;28;20045;-63
2023/05/07 02:31:34;;;;;;;10.55;6.20;;;;;;;11.97;100.00;99291.72;5060025;28;20498;-63
2023/05/07 02:34:02;;;;;;;8.18;5.68;;;;;;;11.98;100.00;99296.03;5062447;28;20586;-63
2023/05/07 02:36:29;;;;;;;10.65;6.80;;;;;;;11.98;100.00;99298.69;5066771;28;20048;-63
2023/05/07 02:39:03;;;;;;;10.35;6.55;;;;;;;11.94;100.00;99297.59;5070977;28;20162;-63
2023/05/07 02:41:30;;;;;;;13.52;6.57;;;;;;;11.90;100.00;99297.28;5065133;28;20054;-62
2023/05/07 02:43:57;;;;;;;9.88;6.18;;;;;;;11.93;100.00;99295.97;5059355;28;20554;-62
2023/05/07 02:46:24;;;;;;;9.52;5.53;;;;;;;11.84;100.00;99301.75;5067829;28;20043;-62
2023/05/07 02:49:00;;;;;;;8.35;5.93;;;;;;;11.77;100.00;99293.03;5059245;28;20041;-63
2023/05/07 02:51:27;;;;;;;9.07;6.15;;;;;;;11.69;100.00;99285.44;5065551;28;20118;-63
2023/05/07 02:53:57;;;;;;;12.40;5.60;;;;;;;11.65;100.00;99289.66;5076215;28;20424;-63
2023/05/07 02:56:24;;;;;;;8.88;6.00;;;;;;;11.53;100.00;99295.16;5055803;28;20041;-62
2023/05/07 02:58:51;;;;;;;12.35;6.63;;;;;;;11.52;100.00;99287.34;5052160;28;20045;-62
2023/05/07 03:01:20;;;;;;;10.77;6.78;;;;;;;11.45;100.00;99285.63;5066356;28;20103;-64
2023/05/07 03:04:01;;;;;;;;;;;;;;;11.45;100.00;99285.63;5061719;28;20041;-63
2023/05/07 03:06:28;;;;;;;10.93;7.40;;;;;;;11.25;100.00;99285.34;5057462;28;19966;-63
2023/05/07 03:08:55;;;;;;;14.65;7.72;;;;;;;11.28;100.00;99284.03;5055888;28;20056;-63
2023/05/07 03:11:22;;;;;;;15.30;8.13;;;;;;;11.26;100.00;99289.66;5065583;28;20376;-63
2023/05/07 03:13:49;;;;;;;13.13;9.63;;;;;;;11.28;100.00;99286.72;5073677;28;20068;-63
2023/05/07 03:16:18;;;;;;;15.13;10.32;;;;;;;11.22;100.00;99281.28;5063701;28;20051;-63
2023/05/07 03:18:47;;;;;;;21.65;10.93;;;;;;;11.13;100.00;99282.75;5058521;28;20445;-63
2023/05/07 03:21:16;;;;;;;21.90;10.25;;;;;;;11.13;100.00;99276.56;5063532;28;20533;-65
2023/05/07 03:23:42;;;;;;;15.95;11.43;;;;;;;11.02;100.00;99279.09;5063018;28;20044;-63
2023/05/07 03:26:10;;;;;;;18.33;11.52;;;;;;;11.07;100.00;99269.50;5053487;28;20044;-63
2023/05/07 03:28:37;;;;;;;23.83;13.90;;;;;;;11.13;100.00;99269.34;5043457;28;20068;-63
2023/05/07 03:31:08;;;;;;;20.58;13.18;;;;;;;11.19;100.00;99267.53;5061888;28;20041;-63
2023/05/07 03:33:35;;;;;;;20.67;12.95;;;;;;;11.22;100.00;99275.09;5060415;28;20049;-63
2023/05/07 03:36:02;;;;;;;21.00;12.30;;;;;;;11.25;100.00;99277.28;5060913;28;20052;-63
2023/05/07 03:38:30;;;;;;;22.83;12.43;;;;;;;11.28;100.00;99274.09;5061489;28;20135;-63
2023/05/07 03:40:58;;;;;;;23.80;13.32;;;;;;;11.29;100.00;99281.09;5058802;28;20052;-63
2023/05/07 03:43:26;;;;;;;48.13;21.85;;;;;;;11.24;100.00;99278.34;5065081;28;20164;-63
2023/05/07 03:46:01;;;;;;;22.95;12.57;;;;;;;11.27;100.00;99279.72;5057728;28;20374;-63
2023/05/07 03:48:29;;;;;;;19.98;11.10;;;;;;;11.26;100.00;99273.56;5057455;28;20044;-63
2023/05/07 03:50:58;;;;;;;20.13;10.95;;;;;;;11.24;100.00;99278.34;5064870;28;20095;-64
2023/05/07 03:53:28;;;;;;;24.35;13.52;;;;;;;11.25;100.00;99284.53;5063087;28;20114;-63
2023/05/07 03:55:57;;;;;;;43.67;20.00;;;;;;;11.20;100.00;99296.00;5059190;28;20037;-63
2023/05/07 03:58:24;;;;;;;33.90;18.48;;;;;;;11.24;100.00;99294.44;5057085;28;20048;-63
2023/05/07 04:00:53;;;;;;;43.75;21.10;;;;;;;11.18;100.00;99292.72;5059398;28;20142;-63
2023/05/07 04:03:27;;;;;;;32.13;17.23;;;;;;;11.16;100.00;99292.19;5056601;28;20040;-63
2023/05/07 04:05:56;;;;;;;25.40;14.25;;;;;;;11.25;100.00;99293.38;5064276;28;20040;-63
2023/05/07 04:08:23;;;;;;;16.63;10.40;;;;;;;11.32;100.00;99298.59;5053811;28;20395;-63
2023/05/07 04:10:57;;;;;;;17.48;11.57;;;;;;;11.39;100.00;99294.69;5060744;28;20040;-62
2023/05/07 04:13:26;;;;;;;19.55;11.45;;;;;;;11.45;100.00;99296.38;5048208;28;20131;-62
2023/05/07 04:15:53;;;;;;;26.55;12.77;;;;;;;11.42;100.00;99302.22;5063528;28;20479;-62
2023/05/07 04:18:21;;;;;;;18.13;12.15;;;;;;;11.49;100.00;99302.06;5076787;28;20522;-63
2023/05/07 04:20:49;;;;;;;23.45;12.23;;;;;;;11.52;100.00;99300.75;5060374;28;20032;-63
2023/05/07 04:23:16;;;;;;;21.98;12.70;;;;;;;11.55;100.00;99294.88;5047294;28;20048;-62
2023/05/07 04:25:45;;;;;;;19.15;12.48;;;;;;;11.66;100.00;99299.34;5048508;28;20040;-63
2023/05/07 04:28:26;;;;;;;20.83;12.50;;;;;;;11.68;100.00;99296.41;5056364;28;20045;-63
2023/05/07 04:30:53;;;;;;;18.55;11.07;;;;;;;11.74;100.00;99298.13;5058409;28;20322;-63
2023/05/07 04:33:22;;;;;;;22.42;11.85;;;;;;;11.71;100.00;99299.44;5052581;28;20061;-63
2023/05/07 04:35:50;;;;;;;18.40;11.57;;;;;;;11.70;100.00;99307.72;5054585;28;20037;-63
2023/05/07 04:38:18;;;;;;;22.60;13.60;;;;;;;11.64;100.00;99304.97;5041270;28;20049;-63
2023/05/07 04:40:47;;;;;;;25.40;16.23;;;;;;;11.53;100.00;99297.00;5054310;28;20087;-63
2023/05/07 04:43:18;;;;;;;21.05;13.80;;;;;;;11.77;100.00;99297.63;5064384;28;20044;-63
2023/05/07 04:45:52;;;;;;;21.23;13.00;;;;;;;11.86;100.00;99307.72;5067603;28;20112;-61
2023/05/07 04:48:20;;;;;;;24.85;12.38;;;;;;;12.04;100.00;99313.84;5063825;28;20495;-63
2023/05/07 04:50:49;;;;;;;26.23;11.52;;;;;;;12.12;100.00;99305.34;5063580;28;20049;-61
2023/05/07 04:53:17;;;;;;;23.75;13.02;;;;;;;12.20;100.00;99315.63;5061451;28;20106;-63
2023/05/07 04:55:44;;;;;;;19.35;12.43;;;;;;;12.03;100.00;99318.41;5052429;28;20490;-63
2023/05/07 04:58:12;;;;;;;21.55;13.85;;;;;;;11.79;100.00;99316.97;5064273;28;20048;-63
2023/05/07 05:00:39;;;;;;;23.58;15.55;;;;;;;11.84;100.00;99309.78;5061765;28;20048;-63
2023/05/07 05:03:09;;;;;;;23.30;16.70;;;;;;;11.92;100.00;99311.25;5055346;28;20072;-63
2023/05/07 05:05:38;;;;;;;26.33;16.23;;;;;;;12.13;100.00;99300.75;5058373;28;20577;-63
2023/05/07 05:08:05;;;;;;;25.33;15.05;;;;;;;12.35;100.00;99308.81;5054767;28;20784;-63
2023/05/07 05:10:33;;;;;;;28.65;17.15;;;;;;;12.59;100.00;99309.34;5051133;28;20049;-63
2023/05/07 05:13:00;;;;;;;26.77;15.48;;;;;;;12.84;100.00;99316.84;5063312;28;20032;-63
2023/05/07 05:15:28;;;;;;;20.70;13.63;;;;;;;12.95;100.00;99318.56;5064424;28;20033;-63
2023/05/07 05:17:55;;;;;;;27.13;15.82;;;;;;;12.87;100.00;99313.66;5064169;28;20406;-63
2023/05/07 05:20:24;;;;;;;20.80;13.70;;;;;;;13.29;100.00;99312.94;5049241;28;20125;-63
2023/05/07 05:22:51;;;;;;;20.77;12.07;;;;;;;13.86;100.00;99322.19;5060480;28;20049;-62
2023/05/07 05:25:18;;;;;;;21.48;12.07;;;;;;;14.89;99.28;99324.97;5046048;28;20046;-63
2023/05/07 05:27:45;;;;;;;16.38;10.13;;;;;;;15.64;90.50;99321.69;5074141;28;20045;-63
2023/05/07 05:30:13;;;;;;;14.48;8.65;;;;;;;15.49;89.18;99327.94;5062253;28;20047;-63
2023/05/07 05:32:41;;;;;;;14.45;8.98;;;;;;;16.99;84.44;99321.66;5061665;28;20137;-62
2023/05/07 05:35:09;;;;;;;11.45;7.88;;;;;;;19.57;72.84;99327.13;5056405;28;20071;-63
2023/05/07 05:37:38;;;;;;;10.30;7.18;;;;;;;20.71;65.07;99331.16;5056979;28;20037;-63
2023/05/07 05:40:08;;;;;;;9.75;6.50;;;;;;;20.23;66.94;99335.13;5054013;28;20051;-62
2023/05/07 05:42:35;;;;;;;9.63;7.10;;;;;;;19.72;70.08;99322.53;5075280;28;20053;-61
2023/05/07 05:45:02;;;;;;;12.23;7.10;;;;;;;22.01;61.97;99329.25;5065374;28;20044;-62
2023/05/07 05:47:31;;;;;;;11.73;6.57;;;;;;;22.20;60.65;99336.41;5070986;28;20047;-62
2023/05/07 05:49:59;;;;;;;9.48;6.03;;;;;;;23.08;56.30;99333.47;5079225;28;20036;-62
2023/05/07 05:52:26;;;;;;;9.82;6.18;;;;;;;23.94;53.73;99336.31;5062114;28;20131;-62
2023/05/07 05:54:56;;;;;;;10.05;6.88;;;;;;;24.38;53.00;99334.16;5057597;28;20495;-62
2023/05/07 05:57:23;;;;;;;7.15;6.07;;;;;;;24.66;52.00;99338.03;5059685;28;20067;-61
2023/05/07 05:59:51;;;;;;;7.32;5.70;;;;;;;22.14;58.87;99327.50;5060165;28;20390;-62
2023/05/07 06:02:18;;;;;;;7.90;5.80;;;;;;;24.10;54.52;99334.63;5053583;28;20049;-61
2023/05/07 06:04:45;;;;;;;9.98;5.60;;;;;;;23.99;54.87;99334.22;5061421;28;20044;-62
2023/05/07 06:07:16;;;;;;;8.70;5.53;;;;;;;21.80;62.23;99330.94;5060401;28;20044;-62
2023/05/07 06:09:44;;;;;;;8.15;4.80;;;;;;;20.07;69.86;99328.38;5083347;28;20135;-62
2023/05/07 06:12:12;;;;;;;8.60;4.80;;;;;;;19.38;72.95;99334.53;5062323;28;20047;-63
2023/05/07 06:14:40;;;;;;;8.18;4.55;;;;;;;19.72;73.62;99330.69;5080234;28;20401;-63
2023/05/07 06:17:07;;;;;;;6.90;4.38;;;;;;;19.10;74.96;99331.72;5063035;28;20044;-63
2023/05/07 06:19:35;;;;;;;9.13;4.72;;;;;;;18.41;79.82;99331.34;5077355;28;20494;-63
2023/05/07 06:22:02;;;;;;;8.18;5.13;;;;;;;18.72;79.08;99339.03;5068128;28;20146;-63
2023/05/07 06:24:31;;;;;;;8.90;5.47;;;;;;;18.03;82.48;99336.69;5054731;28;20462;-63
2023/05/07 06:26:58;;;;;;;8.32;5.82;;;;;;;18.07;82.65;99337.72;5061398;28;20035;-63
2023/05/07 06:29:30;;;;;;;8.60;5.70;;;;;;;17.46;85.73;99341.84;5054090;28;20118;-62
2023/05/07 06:31:57;;;;;;;8.05;5.88;;;;;;;17.61;86.10;99343.59;5062573;28;20071;-63
2023/05/07 06:34:24;;;;;;;9.07;6.43;;;;;;;16.88;91.62;99343.69;5057406;28;20045;-63
2023/05/07 06:36:51;;;;;;;9.35;6.78;;;;;;;17.61;87.23;99340.09;5056165;28;20444;-62
2023/05/07 06:39:30;;;;;;;9.00;6.57;;;;;;;17.54;86.41;99347.75;5062752;28;20052;-62
2023/05/07 06:41:57;;;;;;;9.65;6.90;;;;;;;17.16;89.26;99350.25;5061261;28;20048;-62
2023/05/07 06:44:30;;;;;;;11.88;7.22;;;;;;;17.21;89.30;99351.00;5068584;28;20571;-63
2023/05/07 06:47:07;;;;;;;11.50;7.50;;;;;;;17.14;89.21;99352.41;5041372;28;20046;-63
2023/05/07 06:49:35;;;;;;;9.85;6.93;;;;;;;17.23;88.50;99351.53;5052495;28;20064;-63
2023/05/07 06:52:02;;;;;;;9.95;6.97;;;;;;;17.39;87.87;99352.19;5062585;28;20052;-62
2023/05/07 06:54:30;;;;;;;9.80;7.38;;;;;;;16.95;89.40;99353.09;5061148;28;20082;-62
2023/05/07 06:56:57;;;;;;;11.27;6.65;;;;;;;17.13;89.49;99353.50;5058104;28;20443;-62
2023/05/07 06:59:26;;;;;;;11.02;6.55;;;;;;;17.55;87.75;99360.22;5063238;28;20393;-62
2023/05/07 07:01:57;;;;;;;10.32;6.88;;;;;;;17.25;88.71;99351.25;5049583;28;20048;-63
2023/05/07 07:04:25;;;;;;;11.70;6.30;;;;;;;17.36;88.38;99352.78;5060953;28;20163;-62
2023/05/07 07:07:00;;;;;;;10.25;6.82;;;;;;;17.65;86.52;99346.56;5056504;28;20514;-63
2023/05/07 07:09:27;;;;;;;12.82;6.40;;;;;;;17.98;84.83;99346.78;5060446;28;20101;-62
2023/05/07 07:11:55;;;;;;;9.02;6.03;;;;;;;18.15;82.96;99351.75;5076799;28;20067;-62
2023/05/07 07:14:22;;;;;;;8.77;5.50;;;;;;;18.29;81.60;99342.59;5067524;28;20614;-63
2023/05/07 07:16:51;;;;;;;7.88;5.68;;;;;;;18.19;82.66;99347.34;5049048;28;20099;-63
2023/05/07 07:19:22;;;;;;;7.70;4.80;;;;;;;18.42;81.26;99351.13;5053921;28;20041;-63
2023/05/07 07:21:52;;;;;;;10.15;5.00;;;;;;;18.53;81.18;99352.63;5075426;28;20045;-63
2023/05/07 07:24:21;;;;;;;6.72;4.20;;;;;;;18.96;77.33;99350.66;5058611;28;20463;-62
2023/05/07 07:26:50;;;;;;;7.00;3.35;;;;;;;18.83;75.09;99356.03;5060342;28;20094;-62
2023/05/07 07:29:19;;;;;;;6.78;3.10;;;;;;;18.96;74.55;99350.66;5072771;28;20045;-62
2023/05/07 07:31:49;;;;;;;7.30;3.08;;;;;;;18.80;73.82;99359.34;5063834;28;20051;-63
2023/05/07 07:34:18;;;;;;;6.22;3.20;;;;;;;18.62;74.53;99355.47;5061727;28;20495;-62
2023/05/07 07:36:46;;;;;;;5.00;3.17;;;;;;;19.34;72.95;99355.25;5062855;28;20042;-63
2023/05/07 07:39:16;;;;;;;4.72;2.88;;;;;;;18.60;74.53;99352.28;5050896;28;20040;-64
2023/05/07 07:41:43;;;;;;;6.55;2.95;;;;;;;18.98;74.17;99353.09;5077199;28;20045;-63
2023/05/07 07:44:12;;;;;;;5.10;2.83;;;;;;;19.06;74.15;99355.13;5057599;28;20044;-62
2023/05/07 07:46:41;;;;;;;5.20;2.83;;;;;;;20.19;69.98;99353.16;5062359;28;20048;-63
2023/05/07 07:49:08;;;;;;;4.32;2.80;;;;;;;21.28;64.92;99356.75;5062702;28;20452;-63
2023/05/07 07:51:36;;;;;;;5.20;2.70;;;;;;;20.51;68.32;99360.41;5059632;28;20149;-62
2023/05/07 07:54:05;;;;;;;5.07;2.70;;;;;;;19.75;71.06;99365.47;5082402;28;20135;-61
2023/05/07 07:56:33;;;;;;;;;;;;;;;20.01;69.81;99363.84;5068040;28;20063;-63
2023/05/07 07:59:00;;;;;;;4.70;2.60;;;;;;;19.20;72.35;99362.56;5055752;28;20020;-63
2023/05/07 08:01:27;;;;;;;5.88;3.35;;;;;;;19.50;71.12;99364.75;5062062;28;20056;-63
2023/05/07 08:03:54;;;;;;;4.75;2.85;;;;;;;20.20;70.29;99365.69;5060132;28;20067;-63
2023/05/07 08:06:22;;;;;;;7.18;2.85;;;;;;;22.42;62.10;99360.09;5075527;28;20372;-63
2023/05/07 08:08:49;;;;;;;5.00;2.60;;;;;;;21.78;62.74;99368.63;5057377;28;20136;-63
2023/05/07 08:11:18;;;;;;;4.20;2.40;;;;;;;24.03;55.96;99361.72;5057880;28;20099;-62
2023/05/07 08:13:46;;;;;;;7.95;2.60;;;;;;;23.86;54.19;99368.88;5061075;28;20049;-62
2023/05/07 08:16:15;;;;;;;5.15;2.50;;;;;;;21.98;60.62;99365.34;5079883;28;20083;-62
2023/05/07 08:18:42;;;;;;;8.43;2.90;;;;;;;23.00;57.55;99356.94;5055163;28;20513;-61
2023/05/07 08:21:09;;;;;;;5.85;2.60;;;;;;;22.21;60.10;99355.19;5062658;28;20351;-62
2023/05/07 08:23:36;;;;;;;5.68;2.60;;;;;;;22.07;61.86;99362.69;5061321;28;20123;-62
2023/05/07 08:26:05;;;;;;;5.55;2.83;;;;;;;21.41;63.39;99359.75;5062753;28;20490;-63
2023/05/07 08:28:34;;;;;;;5.57;3.00;;;;;;;22.02;61.73;99362.81;5058420;28;20090;-63
2023/05/07 08:31:01;;;;;;;5.77;2.63;;;;;;;22.05;62.74;99368.44;5054869;28;20140;-63
2023/05/07 08:33:32;;;;;;;5.93;3.20;;;;;;;21.74;65.39;99366.53;5063204;28;20861;-63
2023/05/07 08:35:59;;;;;;;12.20;3.50;;;;;;;21.80;65.15;99366.41;5049286;28;20437;-63
2023/05/07 08:38:27;;;;;;;11.65;3.63;;;;;;;21.78;65.67;99357.72;5065987;28;20102;-62
2023/05/07 08:40:54;;;;;;;5.18;3.35;;;;;;;21.71;65.54;99372.59;5062076;28;20102;-63
2023/05/07 08:43:22;;;;;;;8.38;3.10;;;;;;;21.90;63.76;99368.84;5047065;28;20049;-63
2023/05/07 08:45:50;;;;;;;5.32;3.20;;;;;;;21.57;64.80;99369.16;5063973;28;20508;-62
2023/05/07 08:48:20;;;;;;;5.82;2.97;;;;;;;21.19;66.31;99372.25;5063340;28;20087;-62
2023/05/07 08:50:56;;;;;;;4.28;2.65;;;;;;;21.24;63.48;99361.25;5057050;28;20052;-62
2023/05/07 08:53:23;;;;;;;5.95;2.67;;;;;;;21.90;62.86;99360.66;5063144;28;20044;-62
2023/05/07 08:55:51;;;;;;;6.28;2.60;;;;;;;22.61;59.11;99364.13;5056848;28;20449;-62
2023/05/07 08:58:19;;;;;;;6.45;2.58;;;;;;;22.41;59.52;99367.44;5064745;28;20028;-62
2023/05/07 09:00:46;;;;;;;7.95;2.50;;;;;;;23.12;57.93;99361.75;5055185;28;20066;-62
2023/05/07 09:03:15;;;;;;;4.85;2.40;;;;;;;23.93;54.91;99356.63;5056865;28;20036;-62
2023/05/07 09:05:45;;;;;;;4.90;2.42;;;;;;;24.15;54.06;99358.31;5061609;28;20513;-62
2023/05/07 09:08:15;;;;;;;4.18;2.50;;;;;;;23.96;54.98;99356.75;5059383;28;20515;-62
2023/05/07 09:10:43;;;;;;;4.28;2.65;;;;;;;24.45;53.99;99359.94;5046654;28;20047;-62
2023/05/07 09:13:12;;;;;;;4.68;2.30;;;;;;;25.16;52.37;99359.09;5069538;28;20063;-62
2023/05/07 09:15:39;;;;;;;;;;;;;;;23.14;55.36;99355.97;5058133;28;20047;-62
2023/05/07 09:18:06;;;;;;;4.63;2.30;;;;;;;22.13;60.81;99347.75;5050562;28;19927;-62
2023/05/07 09:20:37;;;;;;;4.78;2.30;;;;;;;22.87;57.83;99365.28;5053107;28;20041;-62
2023/05/07 09:23:04;;;;;;;3.22;2.15;;;;;;;22.90;54.33;99359.97;5052860;28;20386;-62
2023/05/07 09:25:32;;;;;;;7.75;2.45;;;;;;;22.01;58.06;99361.19;5077978;28;20113;-62
2023/05/07 09:28:02;;;;;;;4.07;2.30;;;;;;;23.27;54.36;99357.72;5072973;28;20048;-62
2023/05/07 09:30:30;;;;;;;4.25;2.33;;;;;;;24.49;51.00;99362.81;5055735;28;20435;-62
2023/05/07 09:32:59;;;;;;;6.88;2.50;;;;;;;25.76;48.06;99359.63;5056117;28;20060;-63
2023/05/07 09:35:27;;;;;;;5.95;2.30;;;;;;;25.29;48.61;99357.22;5070066;28;20120;-62
2023/05/07 09:38:00;;;;;;;4.75;2.33;;;;;;;25.41;49.84;99353.72;5043630;28;20052;-62
2023/05/07 09:40:28;;;;;;;4.30;2.42;;;;;;;24.53;51.52;99355.53;5065227;28;20109;-61
2023/05/07 09:42:57;;;;;;;3.42;2.05;;;;;;;23.04;54.10;99355.19;5066510;28;20060;-62
2023/05/07 09:45:26;;;;;;;3.47;2.08;;;;;;;22.41;57.03;99353.78;5075153;28;20041;-61
2023/05/07 09:47:55;;;;;;;4.03;2.20;;;;;;;22.55;56.07;99354.47;5054052;28;20612;-63
2023/05/07 09:50:26;;;;;;;8.65;2.40;;;;;;;22.45;55.14;99351.25;5073131;28;20037;-63
2023/05/07 09:52:53;;;;;;;5.53;2.40;;;;;;;22.82;55.98;99347.13;5056170;28;20037;-63
2023/05/07 09:55:22;;;;;;;5.28;2.33;;;;;;;24.10;52.78;99353.81;5060012;28;20064;-62
2023/05/07 09:57:49;;;;;;;6.60;2.30;;;;;;;25.03;50.31;99353.88;5059806;28;20041;-61
2023/05/07 10:00:17;;;;;;;5.28;2.45;;;;;;;24.11;52.19;99358.13;5073889;28;20056;-61
2023/05/07 10:02:51;;;;;;;4.32;2.40;;;;;;;23.21;53.12;99339.88;5054177;28;20044;-63
2023/05/07 10:05:22;;;;;;;5.43;2.15;;;;;;;22.73;53.48;99349.03;5057473;28;20056;-62
2023/05/07 10:07:52;;;;;;;3.42;1.92;;;;;;;21.94;56.34;99345.25;5094401;28;20382;-63
2023/05/07 10:10:23;;;;;;;4.57;1.90;;;;;;;21.86;57.91;99343.31;5072962;28;20048;-63
2023/05/07 10:12:50;;;;;;;3.97;2.20;;;;;;;21.53;57.56;99340.91;5056920;28;20037;-62
2023/05/07 10:15:25;;;;;;;3.72;2.28;;;;;;;22.67;55.22;99336.66;5057232;28;20570;-62
2023/05/07 10:17:55;;;;;;;7.97;2.30;;;;;;;24.06;51.61;99339.16;5049397;28;20045;-63
2023/05/07 10:20:22;;;;;;;5.35;1.80;;;;;;;24.74;51.04;99336.38;5096560;28;20429;-63
2023/05/07 10:22:50;;;;;;;4.78;2.25;;;;;;;24.00;48.15;99340.50;5058534;28;20102;-63
2023/05/07 10:25:24;;;;;;;4.50;1.77;;;;;;;23.77;50.29;99342.69;5060649;28;20033;-61
2023/05/07 10:27:51;;;;;;;2.75;1.90;;;;;;;22.80;50.85;99346.63;5048378;28;20103;-63
2023/05/07 10:30:33;;;;;;;5.88;2.10;;;;;;;24.18;49.69;99342.00;5056265;28;20366;-63
2023/05/07 10:33:05;;;;;;;3.15;1.95;;;;;;;24.97;47.87;99332.13;5076945;28;20040;-63
2023/05/07 10:35:40;;;;;;;5.10;2.08;;;;;;;24.85;47.26;99339.50;5053173;28;20384;-62
2023/05/07 10:38:07;;;;;;;3.60;1.90;;;;;;;23.61;51.27;99336.88;5063384;28;20566;-62
2023/05/07 10:40:38;;;;;;;;;;;;;;;23.14;51.06;99336.81;5050800;28;20048;-62
2023/05/07 10:43:07;;;;;;;4.75;2.20;;;;;;;24.14;51.42;99332.03;5062687;28;19924;-63
2023/05/07 10:45:40;;;;;;;3.35;2.10;;;;;;;23.77;50.27;99338.00;5055397;28;20127;-62
2023/05/07 10:48:09;;;;;;;3.53;1.90;;;;;;;23.53;50.01;99332.25;5060886;28;20048;-63
2023/05/07 10:50:36;;;;;;;3.65;2.13;;;;;;;24.16;48.64;99338.00;5056652;28;20052;-62
2023/05/07 10:53:28;;;;;;;5.47;2.00;;;;;;;24.11;49.52;99336.22;5056999;28;20494;-62
2023/05/07 10:56:27;;;;;;;4.40;2.45;;;;;;;23.06;52.30;99340.38;5065640;28;20048;-63
2023/05/07 10:59:34;;;;;;;3.42;2.10;;;;;;;22.30;54.68;99330.66;5045778;28;20044;-62
2023/05/07 11:02:15;;;;;;;4.50;2.08;;;;;;;22.88;51.88;99328.63;5061960;28;20131;-62
2023/05/07 11:05:05;;;;;;;4.55;2.00;;;;;;;24.18;49.43;99319.28;5078944;28;20464;-62
2023/05/07 11:07:34;;;;;;;5.20;2.33;;;;;;;23.08;50.91;99327.19;5063618;28;20127;-63
2023/05/07 11:10:08;;;;;;;3.50;2.20;;;;;;;24.58;48.80;99330.66;5062969;28;20045;-62
2023/05/07 11:12:59;;;;;;;3.70;1.95;;;;;;;25.02;48.08;99319.38;5059723;28;21744;-62
2023/05/07 11:15:45;;;;;;;4.20;1.98;;;;;;;26.14;45.53;99319.28;5060336;28;20053;-62
2023/05/07 11:18:19;;;;;;;3.88;1.90;;;;;;;25.43;45.03;99323.19;5044915;28;20046;-63
2023/05/07 11:20:52;;;;;;;4.25;1.95;;;;;;;23.59;49.40;99325.50;5064526;28;20045;-62
2023/05/07 11:23:59;;;;;;;3.45;1.80;;;;;;;23.35;48.36;99326.81;5063605;28;20052;-62
2023/05/07 11:26:48;;;;;;;5.15;1.80;;;;;;;23.01;48.16;99316.75;5070260;28;20048;-62
2023/05/07 11:29:18;;;;;;;6.32;1.60;;;;;;;23.29;45.98;99324.56;5060518;28;20094;-62
2023/05/07 11:31:49;;;;;;;4.53;1.70;;;;;;;24.00;45.07;99324.06;5065528;28;20040;-62
2023/05/07 11:34:24;;;;;;;2.97;1.67;;;;;;;23.47;44.52;99324.22;5072143;28;20794;-62
2023/05/07 11:36:51;;;;;;;3.30;1.85;;;;;;;24.13;44.60;99317.53;5055016;28;20163;-62